sensor_id;sensor_type;location;lat;lon;timestamp;P1;durP1;ratioP1;P2;durP2;ratioP2
19113;SDS011;9689;51.052;13.772;2023-07-31T00:04:35;10.77;;;2.10;;
19113;SDS011;9689;51.052;13.772;2023-07-31T00:09:36;5.15;;;2.05;;
19113;SDS011;9689;51.052;13.772;2023-07-31T00:14:37;5.07;;;2.08;;
19113;SDS011;9689;51.052;13.772;2023-07-31T00:19:39;8.23;;;2.08;;
19113;SDS011;9689;51.052;13.772;2023-07-31T00:24:40;6.43;;;2.30;;
19113;SDS011;9689;51.052;13.772;2023-07-31T00:29:41;4.65;;;1.50;;
19113;SDS011;9689;51.052;13.772;2023-07-31T00:34:43;5.72;;;1.80;;
19113;SDS011;9689;51.052;13.772;2023-07-31T00:39:44;6.05;;;1.80;;
19113;SDS011;9689;51.052;13.772;2023-07-31T00:44:44;8.05;;;1.98;;
19113;SDS011;9689;51.052;13.772;2023-07-31T00:49:48;6.78;;;2.22;;
19113;SDS011;9689;51.052;13.772;2023-07-31T00:54:50;3.92;;;1.70;;
19113;SDS011;9689;51.052;13.772;2023-07-31T00:59:50;5.55;;;2.05;;
19113;SDS011;9689;51.052;13.772;2023-07-31T01:04:53;8.73;;;2.03;;
19113;SDS011;9689;51.052;13.772;2023-07-31T01:09:57;6.93;;;2.15;;
19113;SDS011;9689;51.052;13.772;2023-07-31T01:15:04;6.30;;;2.00;;
19113;SDS011;9689;51.052;13.772;2023-07-31T01:20:09;5.68;;;2.08;;
19113;SDS011;9689;51.052;13.772;2023-07-31T01:25:15;6.75;;;2.00;;
19113;SDS011;9689;51.052;13.772;2023-07-31T01:30:34;3.47;;;1.80;;
19113;SDS011;9689;51.052;13.772;2023-07-31T01:35:42;6.03;;;1.80;;
19113;SDS011;9689;51.052;13.772;2023-07-31T01:40:44;6.40;;;1.85;;
19113;SDS011;9689;51.052;13.772;2023-07-31T01:45:47;9.00;;;1.88;;
19113;SDS011;9689;51.052;13.772;2023-07-31T01:50:49;4.25;;;1.42;;
19113;SDS011;9689;51.052;13.772;2023-07-31T01:55:51;5.78;;;1.60;;
19113;SDS011;9689;51.052;13.772;2023-07-31T02:00:53;3.60;;;1.25;;
19113;SDS011;9689;51.052;13.772;2023-07-31T02:05:54;6.40;;;1.52;;
19113;SDS011;9689;51.052;13.772;2023-07-31T02:10:57;4.35;;;1.40;;
19113;SDS011;9689;51.052;13.772;2023-07-31T02:15:59;5.40;;;1.60;;
19113;SDS011;9689;51.052;13.772;2023-07-31T02:21:00;4.13;;;1.27;;
19113;SDS011;9689;51.052;13.772;2023-07-31T02:26:01;7.57;;;1.85;;
19113;SDS011;9689;51.052;13.772;2023-07-31T02:31:03;3.17;;;1.65;;
19113;SDS011;9689;51.052;13.772;2023-07-31T02:36:06;4.05;;;1.70;;
19113;SDS011;9689;51.052;13.772;2023-07-31T02:41:07;4.07;;;1.58;;
19113;SDS011;9689;51.052;13.772;2023-07-31T02:46:09;4.70;;;1.38;;
19113;SDS011;9689;51.052;13.772;2023-07-31T02:51:10;3.70;;;1.58;;
19113;SDS011;9689;51.052;13.772;2023-07-31T02:56:11;5.05;;;1.70;;
19113;SDS011;9689;51.052;13.772;2023-07-31T03:01:13;6.53;;;1.55;;
19113;SDS011;9689;51.052;13.772;2023-07-31T03:06:14;7.63;;;1.90;;
19113;SDS011;9689;51.052;13.772;2023-07-31T03:11:15;3.58;;;1.42;;
19113;SDS011;9689;51.052;13.772;2023-07-31T03:16:17;5.40;;;1.95;;
19113;SDS011;9689;51.052;13.772;2023-07-31T03:21:18;6.13;;;1.92;;
19113;SDS011;9689;51.052;13.772;2023-07-31T03:26:19;3.88;;;1.17;;
19113;SDS011;9689;51.052;13.772;2023-07-31T03:31:22;3.75;;;1.48;;
19113;SDS011;9689;51.052;13.772;2023-07-31T03:36:23;5.18;;;1.40;;
19113;SDS011;9689;51.052;13.772;2023-07-31T03:41:23;5.82;;;1.65;;
19113;SDS011;9689;51.052;13.772;2023-07-31T03:46:26;5.15;;;1.60;;
19113;SDS011;9689;51.052;13.772;2023-07-31T03:51:27;6.90;;;1.40;;
19113;SDS011;9689;51.052;13.772;2023-07-31T03:56:28;3.42;;;1.50;;
19113;SDS011;9689;51.052;13.772;2023-07-31T04:01:31;4.68;;;1.50;;
19113;SDS011;9689;51.052;13.772;2023-07-31T04:06:32;3.88;;;1.80;;
19113;SDS011;9689;51.052;13.772;2023-07-31T04:11:33;7.18;;;1.80;;
19113;SDS011;9689;51.052;13.772;2023-07-31T04:16:35;4.47;;;1.40;;
19113;SDS011;9689;51.052;13.772;2023-07-31T04:21:36;4.90;;;1.70;;
19113;SDS011;9689;51.052;13.772;2023-07-31T04:26:37;6.50;;;1.85;;
19113;SDS011;9689;51.052;13.772;2023-07-31T04:31:40;4.30;;;1.80;;
19113;SDS011;9689;51.052;13.772;2023-07-31T04:36:40;7.85;;;2.15;;
19113;SDS011;9689;51.052;13.772;2023-07-31T04:41:41;5.15;;;1.85;;
19113;SDS011;9689;51.052;13.772;2023-07-31T04:46:43;7.40;;;2.15;;
19113;SDS011;9689;51.052;13.772;2023-07-31T04:51:44;4.35;;;1.80;;
19113;SDS011;9689;51.052;13.772;2023-07-31T04:56:45;8.02;;;2.47;;
19113;SDS011;9689;51.052;13.772;2023-07-31T05:01:48;7.22;;;2.70;;
19113;SDS011;9689;51.052;13.772;2023-07-31T05:06:49;4.93;;;2.30;;
19113;SDS011;9689;51.052;13.772;2023-07-31T05:11:49;6.30;;;1.83;;
19113;SDS011;9689;51.052;13.772;2023-07-31T05:16:52;3.40;;;1.75;;
19113;SDS011;9689;51.052;13.772;2023-07-31T05:21:53;8.20;;;1.95;;
19113;SDS011;9689;51.052;13.772;2023-07-31T05:26:53;6.53;;;1.83;;
19113;SDS011;9689;51.052;13.772;2023-07-31T05:31:56;5.00;;;2.00;;
19113;SDS011;9689;51.052;13.772;2023-07-31T05:36:56;6.65;;;2.10;;
19113;SDS011;9689;51.052;13.772;2023-07-31T05:41:57;5.75;;;1.98;;
19113;SDS011;9689;51.052;13.772;2023-07-31T05:46:59;5.90;;;1.90;;
19113;SDS011;9689;51.052;13.772;2023-07-31T05:52:00;7.35;;;2.78;;
19113;SDS011;9689;51.052;13.772;2023-07-31T05:57:01;6.03;;;1.92;;
19113;SDS011;9689;51.052;13.772;2023-07-31T06:02:03;5.68;;;1.83;;
19113;SDS011;9689;51.052;13.772;2023-07-31T06:07:05;4.63;;;2.00;;
19113;SDS011;9689;51.052;13.772;2023-07-31T06:12:06;6.95;;;2.30;;
19113;SDS011;9689;51.052;13.772;2023-07-31T06:17:09;6.68;;;1.90;;
19113;SDS011;9689;51.052;13.772;2023-07-31T06:22:10;6.40;;;2.00;;
19113;SDS011;9689;51.052;13.772;2023-07-31T06:27:11;8.05;;;2.03;;
19113;SDS011;9689;51.052;13.772;2023-07-31T06:32:13;7.40;;;2.15;;
19113;SDS011;9689;51.052;13.772;2023-07-31T06:37:14;4.93;;;1.55;;
19113;SDS011;9689;51.052;13.772;2023-07-31T06:42:15;4.00;;;2.08;;
19113;SDS011;9689;51.052;13.772;2023-07-31T06:47:17;7.55;;;2.42;;
19113;SDS011;9689;51.052;13.772;2023-07-31T06:52:17;6.85;;;2.35;;
19113;SDS011;9689;51.052;13.772;2023-07-31T06:57:18;5.05;;;1.80;;
19113;SDS011;9689;51.052;13.772;2023-07-31T07:02:21;4.55;;;1.98;;
19113;SDS011;9689;51.052;13.772;2023-07-31T07:07:22;7.63;;;1.90;;
19113;SDS011;9689;51.052;13.772;2023-07-31T07:12:23;10.25;;;2.25;;
19113;SDS011;9689;51.052;13.772;2023-07-31T07:17:25;3.63;;;1.73;;
19113;SDS011;9689;51.052;13.772;2023-07-31T07:22:26;6.60;;;2.47;;
19113;SDS011;9689;51.052;13.772;2023-07-31T07:27:29;8.05;;;2.40;;
19113;SDS011;9689;51.052;13.772;2023-07-31T07:32:31;8.38;;;2.42;;
19113;SDS011;9689;51.052;13.772;2023-07-31T07:37:32;5.07;;;1.95;;
19113;SDS011;9689;51.052;13.772;2023-07-31T07:42:33;3.60;;;1.92;;
19113;SDS011;9689;51.052;13.772;2023-07-31T07:47:35;4.38;;;1.92;;
19113;SDS011;9689;51.052;13.772;2023-07-31T07:52:36;3.65;;;1.70;;
19113;SDS011;9689;51.052;13.772;2023-07-31T07:57:37;5.03;;;2.53;;
19113;SDS011;9689;51.052;13.772;2023-07-31T08:02:39;4.55;;;1.95;;
19113;SDS011;9689;51.052;13.772;2023-07-31T08:07:40;11.32;;;2.50;;
19113;SDS011;9689;51.052;13.772;2023-07-31T08:12:42;5.28;;;2.25;;
19113;SDS011;9689;51.052;13.772;2023-07-31T08:17:44;5.30;;;2.28;;
19113;SDS011;9689;51.052;13.772;2023-07-31T08:22:45;5.57;;;2.22;;
19113;SDS011;9689;51.052;13.772;2023-07-31T08:27:46;5.75;;;2.00;;
19113;SDS011;9689;51.052;13.772;2023-07-31T08:32:48;3.55;;;2.10;;
19113;SDS011;9689;51.052;13.772;2023-07-31T08:37:49;10.07;;;2.28;;
19113;SDS011;9689;51.052;13.772;2023-07-31T08:42:51;6.07;;;2.03;;
19113;SDS011;9689;51.052;13.772;2023-07-31T08:47:55;6.30;;;2.40;;
19113;SDS011;9689;51.052;13.772;2023-07-31T08:52:57;3.72;;;1.70;;
19113;SDS011;9689;51.052;13.772;2023-07-31T08:57:57;8.15;;;1.77;;
19113;SDS011;9689;51.052;13.772;2023-07-31T09:03:02;11.10;;;6.18;;
19113;SDS011;9689;51.052;13.772;2023-07-31T09:08:08;8.23;;;2.53;;
19113;SDS011;9689;51.052;13.772;2023-07-31T09:13:10;3.95;;;1.88;;
19113;SDS011;9689;51.052;13.772;2023-07-31T09:18:13;6.20;;;2.47;;
19113;SDS011;9689;51.052;13.772;2023-07-31T09:23:18;5.25;;;2.40;;
19113;SDS011;9689;51.052;13.772;2023-07-31T09:28:21;6.65;;;2.50;;
19113;SDS011;9689;51.052;13.772;2023-07-31T09:33:34;8.73;;;2.25;;
19113;SDS011;9689;51.052;13.772;2023-07-31T09:39:03;7.45;;;2.00;;
19113;SDS011;9689;51.052;13.772;2023-07-31T09:44:04;3.55;;;1.92;;
19113;SDS011;9689;51.052;13.772;2023-07-31T09:49:07;7.57;;;2.15;;
19113;SDS011;9689;51.052;13.772;2023-07-31T09:54:09;5.40;;;2.00;;
19113;SDS011;9689;51.052;13.772;2023-07-31T09:59:12;6.35;;;2.38;;
19113;SDS011;9689;51.052;13.772;2023-07-31T10:04:16;3.50;;;1.83;;
19113;SDS011;9689;51.052;13.772;2023-07-31T10:09:20;8.85;;;2.15;;
19113;SDS011;9689;51.052;13.772;2023-07-31T10:14:24;9.73;;;3.05;;
19113;SDS011;9689;51.052;13.772;2023-07-31T10:19:28;8.07;;;3.00;;
19113;SDS011;9689;51.052;13.772;2023-07-31T10:24:31;9.93;;;3.63;;
19113;SDS011;9689;51.052;13.772;2023-07-31T10:29:33;4.35;;;2.45;;
19113;SDS011;9689;51.052;13.772;2023-07-31T10:34:36;5.25;;;1.90;;
19113;SDS011;9689;51.052;13.772;2023-07-31T10:39:39;5.22;;;2.58;;
19113;SDS011;9689;51.052;13.772;2023-07-31T10:44:43;5.63;;;2.30;;
19113;SDS011;9689;51.052;13.772;2023-07-31T10:49:46;6.25;;;2.17;;
19113;SDS011;9689;51.052;13.772;2023-07-31T10:54:47;5.18;;;2.50;;
19113;SDS011;9689;51.052;13.772;2023-07-31T10:59:48;5.75;;;2.05;;
19113;SDS011;9689;51.052;13.772;2023-07-31T11:10:19;4.18;;;2.38;;
19113;SDS011;9689;51.052;13.772;2023-07-31T11:15:20;4.03;;;2.30;;
19113;SDS011;9689;51.052;13.772;2023-07-31T11:20:21;3.40;;;1.95;;
19113;SDS011;9689;51.052;13.772;2023-07-31T11:25:23;8.00;;;2.50;;
19113;SDS011;9689;51.052;13.772;2023-07-31T11:30:24;4.90;;;2.08;;
19113;SDS011;9689;51.052;13.772;2023-07-31T11:35:25;4.90;;;2.00;;
19113;SDS011;9689;51.052;13.772;2023-07-31T11:40:27;7.60;;;1.95;;
19113;SDS011;9689;51.052;13.772;2023-07-31T11:45:31;2.80;;;1.88;;
19113;SDS011;9689;51.052;13.772;2023-07-31T11:50:34;3.67;;;1.50;;
19113;SDS011;9689;51.052;13.772;2023-07-31T11:55:38;4.88;;;1.83;;
19113;SDS011;9689;51.052;13.772;2023-07-31T12:00:39;2.85;;;1.75;;
19113;SDS011;9689;51.052;13.772;2023-07-31T12:05:41;3.15;;;1.70;;
19113;SDS011;9689;51.052;13.772;2023-07-31T12:10:43;3.70;;;1.92;;
19113;SDS011;9689;51.052;13.772;2023-07-31T12:15:44;3.85;;;1.60;;
19113;SDS011;9689;51.052;13.772;2023-07-31T12:20:47;4.40;;;2.03;;
19113;SDS011;9689;51.052;13.772;2023-07-31T12:25:54;4.00;;;1.70;;
19113;SDS011;9689;51.052;13.772;2023-07-31T12:31:00;3.15;;;1.30;;
19113;SDS011;9689;51.052;13.772;2023-07-31T12:36:02;2.72;;;1.50;;
19113;SDS011;9689;51.052;13.772;2023-07-31T12:41:05;7.25;;;2.10;;
19113;SDS011;9689;51.052;13.772;2023-07-31T12:46:07;4.13;;;1.83;;
19113;SDS011;9689;51.052;13.772;2023-07-31T12:51:09;6.25;;;2.10;;
19113;SDS011;9689;51.052;13.772;2023-07-31T12:56:11;2.90;;;1.83;;
19113;SDS011;9689;51.052;13.772;2023-07-31T13:01:12;7.78;;;1.70;;
19113;SDS011;9689;51.052;13.772;2023-07-31T13:06:13;2.83;;;1.55;;
19113;SDS011;9689;51.052;13.772;2023-07-31T13:11:15;5.53;;;1.90;;
19113;SDS011;9689;51.052;13.772;2023-07-31T13:16:16;4.05;;;1.60;;
19113;SDS011;9689;51.052;13.772;2023-07-31T13:21:22;5.65;;;2.10;;
19113;SDS011;9689;51.052;13.772;2023-07-31T13:26:25;2.97;;;1.77;;
19113;SDS011;9689;51.052;13.772;2023-07-31T13:31:25;4.68;;;2.38;;
19113;SDS011;9689;51.052;13.772;2023-07-31T13:36:26;4.55;;;2.17;;
19113;SDS011;9689;51.052;13.772;2023-07-31T13:41:28;2.58;;;1.60;;
19113;SDS011;9689;51.052;13.772;2023-07-31T13:46:29;3.60;;;1.77;;
19113;SDS011;9689;51.052;13.772;2023-07-31T13:51:31;2.78;;;1.75;;
19113;SDS011;9689;51.052;13.772;2023-07-31T13:56:33;4.32;;;2.05;;
19113;SDS011;9689;51.052;13.772;2023-07-31T14:01:34;3.78;;;1.98;;
19113;SDS011;9689;51.052;13.772;2023-07-31T14:06:35;6.05;;;2.05;;
19113;SDS011;9689;51.052;13.772;2023-07-31T14:11:38;5.05;;;1.83;;
19113;SDS011;9689;51.052;13.772;2023-07-31T14:16:41;5.20;;;1.90;;
19113;SDS011;9689;51.052;13.772;2023-07-31T14:21:42;7.20;;;1.65;;
19113;SDS011;9689;51.052;13.772;2023-07-31T14:26:58;8.95;;;2.30;;
19113;SDS011;9689;51.052;13.772;2023-07-31T14:31:59;5.03;;;2.65;;
19113;SDS011;9689;51.052;13.772;2023-07-31T14:37:00;5.25;;;2.47;;
19113;SDS011;9689;51.052;13.772;2023-07-31T14:42:02;6.60;;;2.47;;
19113;SDS011;9689;51.052;13.772;2023-07-31T14:47:03;4.70;;;2.08;;
19113;SDS011;9689;51.052;13.772;2023-07-31T14:52:05;5.25;;;2.50;;
19113;SDS011;9689;51.052;13.772;2023-07-31T14:57:08;5.03;;;2.20;;
19113;SDS011;9689;51.052;13.772;2023-07-31T15:02:09;5.15;;;2.10;;
19113;SDS011;9689;51.052;13.772;2023-07-31T15:07:10;4.20;;;2.10;;
19113;SDS011;9689;51.052;13.772;2023-07-31T15:12:14;4.85;;;2.13;;
19113;SDS011;9689;51.052;13.772;2023-07-31T15:17:15;6.22;;;2.38;;
19113;SDS011;9689;51.052;13.772;2023-07-31T15:22:16;4.38;;;1.80;;
19113;SDS011;9689;51.052;13.772;2023-07-31T15:27:18;9.45;;;2.35;;
19113;SDS011;9689;51.052;13.772;2023-07-31T15:32:19;5.03;;;2.00;;
19113;SDS011;9689;51.052;13.772;2023-07-31T15:37:26;3.35;;;1.90;;
19113;SDS011;9689;51.052;13.772;2023-07-31T15:42:28;3.90;;;2.05;;
19113;SDS011;9689;51.052;13.772;2023-07-31T15:47:29;5.30;;;2.10;;
19113;SDS011;9689;51.052;13.772;2023-07-31T15:52:30;3.90;;;1.98;;
19113;SDS011;9689;51.052;13.772;2023-07-31T15:57:33;5.82;;;2.65;;
19113;SDS011;9689;51.052;13.772;2023-07-31T16:02:34;4.93;;;2.20;;
19113;SDS011;9689;51.052;13.772;2023-07-31T16:07:35;3.63;;;2.30;;
19113;SDS011;9689;51.052;13.772;2023-07-31T16:12:38;4.90;;;2.08;;
19113;SDS011;9689;51.052;13.772;2023-07-31T16:17:40;6.15;;;1.95;;
19113;SDS011;9689;51.052;13.772;2023-07-31T16:22:41;7.70;;;3.45;;
19113;SDS011;9689;51.052;13.772;2023-07-31T16:27:43;4.60;;;2.08;;
19113;SDS011;9689;51.052;13.772;2023-07-31T16:32:44;4.28;;;2.10;;
19113;SDS011;9689;51.052;13.772;2023-07-31T16:37:49;3.58;;;2.10;;
19113;SDS011;9689;51.052;13.772;2023-07-31T16:42:51;6.07;;;2.15;;
19113;SDS011;9689;51.052;13.772;2023-07-31T16:47:52;4.50;;;2.10;;
19113;SDS011;9689;51.052;13.772;2023-07-31T16:52:53;4.60;;;2.08;;
19113;SDS011;9689;51.052;13.772;2023-07-31T16:57:55;6.03;;;2.17;;
19113;SDS011;9689;51.052;13.772;2023-07-31T17:02:56;4.50;;;2.20;;
19113;SDS011;9689;51.052;13.772;2023-07-31T17:07:57;5.50;;;2.80;;
19113;SDS011;9689;51.052;13.772;2023-07-31T17:12:59;7.03;;;2.60;;
19113;SDS011;9689;51.052;13.772;2023-07-31T17:18:01;4.75;;;2.60;;
19113;SDS011;9689;51.052;13.772;2023-07-31T17:23:02;5.78;;;2.58;;
19113;SDS011;9689;51.052;13.772;2023-07-31T17:28:04;6.43;;;2.72;;
19113;SDS011;9689;51.052;13.772;2023-07-31T17:33:05;6.03;;;2.40;;
19113;SDS011;9689;51.052;13.772;2023-07-31T17:38:06;5.07;;;2.35;;
19113;SDS011;9689;51.052;13.772;2023-07-31T17:43:09;15.85;;;3.83;;
19113;SDS011;9689;51.052;13.772;2023-07-31T17:48:10;6.07;;;2.90;;
19113;SDS011;9689;51.052;13.772;2023-07-31T17:53:11;8.88;;;3.30;;
19113;SDS011;9689;51.052;13.772;2023-07-31T17:58:13;12.02;;;3.65;;
19113;SDS011;9689;51.052;13.772;2023-07-31T18:03:14;16.00;;;4.30;;
19113;SDS011;9689;51.052;13.772;2023-07-31T18:08:15;8.10;;;3.35;;
19113;SDS011;9689;51.052;13.772;2023-07-31T18:13:18;8.75;;;2.88;;
19113;SDS011;9689;51.052;13.772;2023-07-31T18:18:19;7.72;;;2.72;;
19113;SDS011;9689;51.052;13.772;2023-07-31T18:23:20;7.20;;;3.60;;
19113;SDS011;9689;51.052;13.772;2023-07-31T18:28:22;7.65;;;2.75;;
19113;SDS011;9689;51.052;13.772;2023-07-31T18:33:23;8.93;;;3.28;;
19113;SDS011;9689;51.052;13.772;2023-07-31T18:38:24;8.43;;;3.28;;
19113;SDS011;9689;51.052;13.772;2023-07-31T18:43:27;6.55;;;3.13;;
19113;SDS011;9689;51.052;13.772;2023-07-31T18:48:27;9.57;;;3.40;;
19113;SDS011;9689;51.052;13.772;2023-07-31T18:53:30;7.00;;;3.15;;
19113;SDS011;9689;51.052;13.772;2023-07-31T18:58:33;8.23;;;3.53;;
19113;SDS011;9689;51.052;13.772;2023-07-31T19:03:33;5.85;;;3.35;;
19113;SDS011;9689;51.052;13.772;2023-07-31T19:08:34;4.47;;;2.88;;
19113;SDS011;9689;51.052;13.772;2023-07-31T19:13:37;9.35;;;3.40;;
19113;SDS011;9689;51.052;13.772;2023-07-31T19:18:38;8.10;;;3.58;;
19113;SDS011;9689;51.052;13.772;2023-07-31T19:23:39;8.88;;;3.65;;
19113;SDS011;9689;51.052;13.772;2023-07-31T19:28:42;8.02;;;3.28;;
19113;SDS011;9689;51.052;13.772;2023-07-31T19:33:43;6.97;;;3.22;;
19113;SDS011;9689;51.052;13.772;2023-07-31T19:38:44;10.18;;;3.72;;
19113;SDS011;9689;51.052;13.772;2023-07-31T19:43:46;10.57;;;3.15;;
19113;SDS011;9689;51.052;13.772;2023-07-31T19:48:47;6.90;;;2.60;;
19113;SDS011;9689;51.052;13.772;2023-07-31T19:53:48;6.88;;;2.85;;
19113;SDS011;9689;51.052;13.772;2023-07-31T19:58:50;5.90;;;2.92;;
19113;SDS011;9689;51.052;13.772;2023-07-31T20:03:51;5.18;;;2.80;;
19113;SDS011;9689;51.052;13.772;2023-07-31T20:08:52;5.63;;;2.60;;
19113;SDS011;9689;51.052;13.772;2023-07-31T20:13:55;5.80;;;3.03;;
19113;SDS011;9689;51.052;13.772;2023-07-31T20:18:56;9.57;;;3.88;;
19113;SDS011;9689;51.052;13.772;2023-07-31T20:23:57;9.60;;;3.30;;
19113;SDS011;9689;51.052;13.772;2023-07-31T20:28:59;14.48;;;3.05;;
19113;SDS011;9689;51.052;13.772;2023-07-31T20:34:00;5.45;;;3.38;;
19113;SDS011;9689;51.052;13.772;2023-07-31T20:39:00;7.28;;;3.58;;
19113;SDS011;9689;51.052;13.772;2023-07-31T20:44:05;7.07;;;3.10;;
19113;SDS011;9689;51.052;13.772;2023-07-31T20:49:06;7.00;;;2.85;;
19113;SDS011;9689;51.052;13.772;2023-07-31T20:54:07;5.47;;;2.63;;
19113;SDS011;9689;51.052;13.772;2023-07-31T20:59:09;6.45;;;2.90;;
19113;SDS011;9689;51.052;13.772;2023-07-31T21:04:10;8.80;;;3.00;;
19113;SDS011;9689;51.052;13.772;2023-07-31T21:09:12;5.53;;;2.63;;
19113;SDS011;9689;51.052;13.772;2023-07-31T21:14:14;5.32;;;2.85;;
19113;SDS011;9689;51.052;13.772;2023-07-31T21:19:14;8.50;;;3.17;;
19113;SDS011;9689;51.052;13.772;2023-07-31T21:24:17;6.57;;;2.97;;
19113;SDS011;9689;51.052;13.772;2023-07-31T21:29:19;5.40;;;2.88;;
19113;SDS011;9689;51.052;13.772;2023-07-31T21:34:20;8.30;;;3.22;;
19113;SDS011;9689;51.052;13.772;2023-07-31T21:39:23;6.45;;;3.10;;
19113;SDS011;9689;51.052;13.772;2023-07-31T21:44:26;6.53;;;3.00;;
19113;SDS011;9689;51.052;13.772;2023-07-31T21:49:26;6.82;;;3.10;;
19113;SDS011;9689;51.052;13.772;2023-07-31T21:54:27;9.70;;;3.05;;
19113;SDS011;9689;51.052;13.772;2023-07-31T21:59:29;10.60;;;3.58;;
19113;SDS011;9689;51.052;13.772;2023-07-31T22:04:31;13.93;;;3.22;;
19113;SDS011;9689;51.052;13.772;2023-07-31T22:09:31;5.82;;;3.20;;
19113;SDS011;9689;51.052;13.772;2023-07-31T22:14:33;6.30;;;2.85;;
19113;SDS011;9689;51.052;13.772;2023-07-31T22:19:34;4.63;;;2.75;;
19113;SDS011;9689;51.052;13.772;2023-07-31T22:24:35;4.72;;;2.85;;
19113;SDS011;9689;51.052;13.772;2023-07-31T22:29:39;4.95;;;2.60;;
19113;SDS011;9689;51.052;13.772;2023-07-31T22:34:40;4.90;;;2.72;;
19113;SDS011;9689;51.052;13.772;2023-07-31T22:39:41;6.00;;;2.72;;
19113;SDS011;9689;51.052;13.772;2023-07-31T22:44:43;7.85;;;3.00;;
19113;SDS011;9689;51.052;13.772;2023-07-31T22:49:44;8.20;;;2.63;;
19113;SDS011;9689;51.052;13.772;2023-07-31T22:54:44;7.20;;;2.80;;
19113;SDS011;9689;51.052;13.772;2023-07-31T22:59:47;8.20;;;2.80;;
19113;SDS011;9689;51.052;13.772;2023-07-31T23:04:47;8.38;;;2.83;;
19113;SDS011;9689;51.052;13.772;2023-07-31T23:09:51;6.78;;;2.83;;
19113;SDS011;9689;51.052;13.772;2023-07-31T23:14:55;6.68;;;2.58;;
19113;SDS011;9689;51.052;13.772;2023-07-31T23:19:56;3.58;;;2.28;;
19113;SDS011;9689;51.052;13.772;2023-07-31T23:24:57;10.32;;;2.78;;
19113;SDS011;9689;51.052;13.772;2023-07-31T23:29:59;4.90;;;2.33;;
19113;SDS011;9689;51.052;13.772;2023-07-31T23:35:00;8.68;;;3.10;;
19113;SDS011;9689;51.052;13.772;2023-07-31T23:40:01;9.85;;;3.17;;
19113;SDS011;9689;51.052;13.772;2023-07-31T23:45:04;6.30;;;3.03;;
19113;SDS011;9689;51.052;13.772;2023-07-31T23:50:10;7.20;;;2.70;;
19113;SDS011;9689;51.052;13.772;2023-07-31T23:55:12;8.10;;;3.10;;
